sensor_id;sensor_type;location;lat;lon;timestamp;temperature;humidity
20288;DHT22;10303;51.960;8.372;2024-03-06T00:02:09;11.00;99.90
20288;DHT22;10303;51.960;8.372;2024-03-06T00:04:35;11.00;99.90
20288;DHT22;10303;51.960;8.372;2024-03-06T00:07:01;11.00;99.90
20288;DHT22;10303;51.960;8.372;2024-03-06T00:09:27;11.00;99.90
20288;DHT22;10303;51.960;8.372;2024-03-06T00:11:54;11.00;99.90
20288;DHT22;10303;51.960;8.372;2024-03-06T00:14:21;10.90;99.90
20288;DHT22;10303;51.960;8.372;2024-03-06T00:16:48;10.90;99.90
20288;DHT22;10303;51.960;8.372;2024-03-06T00:19:18;10.90;99.90
20288;DHT22;10303;51.960;8.372;2024-03-06T00:21:44;10.90;99.90
20288;DHT22;10303;51.960;8.372;2024-03-06T00:24:14;10.90;99.90
20288;DHT22;10303;51.960;8.372;2024-03-06T00:26:42;10.90;99.90
20288;DHT22;10303;51.960;8.372;2024-03-06T00:29:10;10.90;99.90
20288;DHT22;10303;51.960;8.372;2024-03-06T00:31:41;10.90;99.90
20288;DHT22;10303;51.960;8.372;2024-03-06T00:34:08;10.90;99.90
20288;DHT22;10303;51.960;8.372;2024-03-06T00:36:34;10.90;99.90
20288;DHT22;10303;51.960;8.372;2024-03-06T00:39:00;10.90;99.90
20288;DHT22;10303;51.960;8.372;2024-03-06T00:41:26;10.90;99.90
20288;DHT22;10303;51.960;8.372;2024-03-06T00:43:52;10.90;99.90
20288;DHT22;10303;51.960;8.372;2024-03-06T00:46:18;10.90;99.90
20288;DHT22;10303;51.960;8.372;2024-03-06T00:48:44;10.90;99.90
20288;DHT22;10303;51.960;8.372;2024-03-06T00:51:10;10.90;99.90
20288;DHT22;10303;51.960;8.372;2024-03-06T00:53:36;10.90;99.90
20288;DHT22;10303;51.960;8.372;2024-03-06T00:56:02;10.90;99.90
20288;DHT22;10303;51.960;8.372;2024-03-06T00:58:28;10.90;99.90
20288;DHT22;10303;51.960;8.372;2024-03-06T01:00:54;10.90;99.90
20288;DHT22;10303;51.960;8.372;2024-03-06T01:03:20;10.90;99.90
20288;DHT22;10303;51.960;8.372;2024-03-06T01:05:46;10.90;99.90
20288;DHT22;10303;51.960;8.372;2024-03-06T01:08:12;10.90;99.90
20288;DHT22;10303;51.960;8.372;2024-03-06T01:10:39;10.90;99.90
20288;DHT22;10303;51.960;8.372;2024-03-06T01:13:04;10.90;99.90
20288;DHT22;10303;51.960;8.372;2024-03-06T01:15:30;10.90;99.90
20288;DHT22;10303;51.960;8.372;2024-03-06T01:17:56;10.90;99.90
20288;DHT22;10303;51.960;8.372;2024-03-06T01:20:23;10.90;99.90
20288;DHT22;10303;51.960;8.372;2024-03-06T01:22:49;10.90;99.90
20288;DHT22;10303;51.960;8.372;2024-03-06T01:25:15;10.90;99.90
20288;DHT22;10303;51.960;8.372;2024-03-06T01:27:41;10.90;99.90
20288;DHT22;10303;51.960;8.372;2024-03-06T01:30:07;10.90;99.90
20288;DHT22;10303;51.960;8.372;2024-03-06T01:32:33;10.90;99.90
20288;DHT22;10303;51.960;8.372;2024-03-06T01:34:59;10.90;99.90
20288;DHT22;10303;51.960;8.372;2024-03-06T01:37:25;10.90;99.90
20288;DHT22;10303;51.960;8.372;2024-03-06T01:39:51;10.90;99.90
20288;DHT22;10303;51.960;8.372;2024-03-06T01:42:17;10.90;99.90
20288;DHT22;10303;51.960;8.372;2024-03-06T01:44:44;10.90;99.90
20288;DHT22;10303;51.960;8.372;2024-03-06T01:47:09;10.80;99.90
20288;DHT22;10303;51.960;8.372;2024-03-06T01:49:35;10.90;99.90
20288;DHT22;10303;51.960;8.372;2024-03-06T01:52:02;10.80;99.90
20288;DHT22;10303;51.960;8.372;2024-03-06T01:54:30;10.80;99.90
20288;DHT22;10303;51.960;8.372;2024-03-06T01:56:58;10.80;99.90
20288;DHT22;10303;51.960;8.372;2024-03-06T01:59:27;10.80;99.90
20288;DHT22;10303;51.960;8.372;2024-03-06T02:01:54;10.80;99.90
20288;DHT22;10303;51.960;8.372;2024-03-06T02:04:20;10.80;99.90
20288;DHT22;10303;51.960;8.372;2024-03-06T02:06:48;10.80;99.90
20288;DHT22;10303;51.960;8.372;2024-03-06T02:09:14;10.80;99.90
20288;DHT22;10303;51.960;8.372;2024-03-06T02:11:40;10.80;99.90
20288;DHT22;10303;51.960;8.372;2024-03-06T02:14:07;10.80;99.90
20288;DHT22;10303;51.960;8.372;2024-03-06T02:16:36;10.80;99.90
20288;DHT22;10303;51.960;8.372;2024-03-06T02:19:05;10.80;99.90
20288;DHT22;10303;51.960;8.372;2024-03-06T02:21:31;10.90;99.90
20288;DHT22;10303;51.960;8.372;2024-03-06T02:23:57;10.80;99.90
20288;DHT22;10303;51.960;8.372;2024-03-06T02:26:23;10.80;99.90
20288;DHT22;10303;51.960;8.372;2024-03-06T02:28:51;10.80;99.90
20288;DHT22;10303;51.960;8.372;2024-03-06T02:31:19;10.80;99.90
20288;DHT22;10303;51.960;8.372;2024-03-06T02:33:47;10.90;99.90
20288;DHT22;10303;51.960;8.372;2024-03-06T02:36:14;10.90;99.90
20288;DHT22;10303;51.960;8.372;2024-03-06T02:38:44;10.90;99.90
20288;DHT22;10303;51.960;8.372;2024-03-06T02:41:11;10.90;99.90
20288;DHT22;10303;51.960;8.372;2024-03-06T02:43:39;10.90;99.90
20288;DHT22;10303;51.960;8.372;2024-03-06T02:46:05;10.90;99.90
20288;DHT22;10303;51.960;8.372;2024-03-06T02:48:31;10.90;99.90
20288;DHT22;10303;51.960;8.372;2024-03-06T02:50:58;10.90;99.90
20288;DHT22;10303;51.960;8.372;2024-03-06T02:53:24;10.90;99.90
20288;DHT22;10303;51.960;8.372;2024-03-06T02:55:51;10.90;99.90
20288;DHT22;10303;51.960;8.372;2024-03-06T02:58:17;10.90;99.90
20288;DHT22;10303;51.960;8.372;2024-03-06T03:00:43;10.90;99.90
20288;DHT22;10303;51.960;8.372;2024-03-06T03:03:10;10.90;99.90
20288;DHT22;10303;51.960;8.372;2024-03-06T03:05:39;10.90;99.90
20288;DHT22;10303;51.960;8.372;2024-03-06T03:08:06;10.90;99.90
20288;DHT22;10303;51.960;8.372;2024-03-06T03:10:32;10.90;99.90
20288;DHT22;10303;51.960;8.372;2024-03-06T03:13:00;10.90;99.90
20288;DHT22;10303;51.960;8.372;2024-03-06T03:15:27;10.90;99.90
20288;DHT22;10303;51.960;8.372;2024-03-06T03:17:53;10.90;99.90
20288;DHT22;10303;51.960;8.372;2024-03-06T03:20:19;10.90;99.90
20288;DHT22;10303;51.960;8.372;2024-03-06T03:22:46;10.90;99.90
20288;DHT22;10303;51.960;8.372;2024-03-06T03:25:13;10.90;99.90
20288;DHT22;10303;51.960;8.372;2024-03-06T03:27:40;10.90;99.90
20288;DHT22;10303;51.960;8.372;2024-03-06T03:30:12;10.90;99.90
20288;DHT22;10303;51.960;8.372;2024-03-06T03:32:39;10.90;99.90
20288;DHT22;10303;51.960;8.372;2024-03-06T03:35:06;11.00;99.90
20288;DHT22;10303;51.960;8.372;2024-03-06T03:37:33;10.90;99.90
20288;DHT22;10303;51.960;8.372;2024-03-06T03:39:59;11.00;99.90
20288;DHT22;10303;51.960;8.372;2024-03-06T03:42:25;11.00;99.90
20288;DHT22;10303;51.960;8.372;2024-03-06T03:44:51;11.00;99.90
20288;DHT22;10303;51.960;8.372;2024-03-06T03:47:18;11.00;99.90
20288;DHT22;10303;51.960;8.372;2024-03-06T03:49:44;11.00;99.90
20288;DHT22;10303;51.960;8.372;2024-03-06T03:52:10;11.00;99.90
20288;DHT22;10303;51.960;8.372;2024-03-06T03:54:37;11.00;99.90
20288;DHT22;10303;51.960;8.372;2024-03-06T03:57:03;11.00;99.90
20288;DHT22;10303;51.960;8.372;2024-03-06T03:59:29;11.00;99.90
20288;DHT22;10303;51.960;8.372;2024-03-06T04:01:55;11.00;99.90
20288;DHT22;10303;51.960;8.372;2024-03-06T04:04:23;11.00;99.90
20288;DHT22;10303;51.960;8.372;2024-03-06T04:06:49;11.00;99.90
20288;DHT22;10303;51.960;8.372;2024-03-06T04:09:15;10.90;99.90
20288;DHT22;10303;51.960;8.372;2024-03-06T04:11:41;10.90;99.90
20288;DHT22;10303;51.960;8.372;2024-03-06T04:14:07;10.90;99.90
20288;DHT22;10303;51.960;8.372;2024-03-06T04:16:33;10.90;99.90
20288;DHT22;10303;51.960;8.372;2024-03-06T04:19:00;10.90;99.90
20288;DHT22;10303;51.960;8.372;2024-03-06T04:21:27;10.90;99.90
20288;DHT22;10303;51.960;8.372;2024-03-06T04:23:53;10.90;99.90
20288;DHT22;10303;51.960;8.372;2024-03-06T04:26:19;10.90;99.90
20288;DHT22;10303;51.960;8.372;2024-03-06T04:28:46;10.90;99.90
20288;DHT22;10303;51.960;8.372;2024-03-06T04:31:12;10.90;99.90
20288;DHT22;10303;51.960;8.372;2024-03-06T04:33:37;11.00;99.90
20288;DHT22;10303;51.960;8.372;2024-03-06T04:36:04;10.90;99.90
20288;DHT22;10303;51.960;8.372;2024-03-06T04:38:34;10.90;99.90
20288;DHT22;10303;51.960;8.372;2024-03-06T04:41:00;10.90;99.90
20288;DHT22;10303;51.960;8.372;2024-03-06T04:43:26;10.90;99.90
20288;DHT22;10303;51.960;8.372;2024-03-06T04:45:52;10.90;99.90
20288;DHT22;10303;51.960;8.372;2024-03-06T04:48:18;10.90;99.90
20288;DHT22;10303;51.960;8.372;2024-03-06T04:50:44;10.90;99.90
20288;DHT22;10303;51.960;8.372;2024-03-06T04:53:10;11.00;99.90
20288;DHT22;10303;51.960;8.372;2024-03-06T04:55:37;10.90;99.90
20288;DHT22;10303;51.960;8.372;2024-03-06T04:58:03;11.00;99.90
20288;DHT22;10303;51.960;8.372;2024-03-06T05:00:30;11.00;99.90
20288;DHT22;10303;51.960;8.372;2024-03-06T05:02:56;11.00;99.90
20288;DHT22;10303;51.960;8.372;2024-03-06T05:05:22;10.90;99.90
20288;DHT22;10303;51.960;8.372;2024-03-06T05:07:48;11.00;99.90
20288;DHT22;10303;51.960;8.372;2024-03-06T05:10:15;11.00;99.90
20288;DHT22;10303;51.960;8.372;2024-03-06T05:12:43;11.00;99.90
20288;DHT22;10303;51.960;8.372;2024-03-06T05:15:10;11.00;99.90
20288;DHT22;10303;51.960;8.372;2024-03-06T05:17:37;11.00;99.90
20288;DHT22;10303;51.960;8.372;2024-03-06T05:20:03;11.00;99.90
20288;DHT22;10303;51.960;8.372;2024-03-06T05:22:30;11.00;99.90
20288;DHT22;10303;51.960;8.372;2024-03-06T05:24:56;11.00;99.90
20288;DHT22;10303;51.960;8.372;2024-03-06T05:27:24;11.00;99.90
20288;DHT22;10303;51.960;8.372;2024-03-06T05:29:51;11.00;99.90
20288;DHT22;10303;51.960;8.372;2024-03-06T05:32:18;11.00;99.90
20288;DHT22;10303;51.960;8.372;2024-03-06T05:34:44;11.00;99.90
20288;DHT22;10303;51.960;8.372;2024-03-06T05:37:10;11.00;99.90
20288;DHT22;10303;51.960;8.372;2024-03-06T05:39:36;11.00;99.90
20288;DHT22;10303;51.960;8.372;2024-03-06T05:42:08;11.00;99.90
20288;DHT22;10303;51.960;8.372;2024-03-06T05:44:34;11.00;99.90
20288;DHT22;10303;51.960;8.372;2024-03-06T05:47:01;11.00;99.90
20288;DHT22;10303;51.960;8.372;2024-03-06T05:49:28;11.00;99.90
20288;DHT22;10303;51.960;8.372;2024-03-06T05:51:55;11.00;99.90
20288;DHT22;10303;51.960;8.372;2024-03-06T05:54:21;11.00;99.90
20288;DHT22;10303;51.960;8.372;2024-03-06T05:56:51;11.10;99.90
20288;DHT22;10303;51.960;8.372;2024-03-06T05:59:20;11.00;99.90
20288;DHT22;10303;51.960;8.372;2024-03-06T06:01:46;11.10;99.90
20288;DHT22;10303;51.960;8.372;2024-03-06T06:04:14;11.10;99.90
20288;DHT22;10303;51.960;8.372;2024-03-06T06:06:40;11.10;99.90
20288;DHT22;10303;51.960;8.372;2024-03-06T06:09:06;11.10;99.90
20288;DHT22;10303;51.960;8.372;2024-03-06T06:11:35;11.20;99.90
20288;DHT22;10303;51.960;8.372;2024-03-06T06:14:01;11.10;99.90
20288;DHT22;10303;51.960;8.372;2024-03-06T06:16:35;11.40;99.90
20288;DHT22;10303;51.960;8.372;2024-03-06T06:19:02;11.00;99.90
20288;DHT22;10303;51.960;8.372;2024-03-06T06:21:28;11.00;99.90
20288;DHT22;10303;51.960;8.372;2024-03-06T06:23:54;11.00;99.90
20288;DHT22;10303;51.960;8.372;2024-03-06T06:26:20;11.00;99.90
20288;DHT22;10303;51.960;8.372;2024-03-06T06:28:46;11.00;99.90
20288;DHT22;10303;51.960;8.372;2024-03-06T06:31:12;11.10;99.90
20288;DHT22;10303;51.960;8.372;2024-03-06T06:33:38;11.10;99.90
20288;DHT22;10303;51.960;8.372;2024-03-06T06:36:04;11.10;99.90
20288;DHT22;10303;51.960;8.372;2024-03-06T06:38:30;11.10;99.90
20288;DHT22;10303;51.960;8.372;2024-03-06T06:40:56;11.10;99.90
20288;DHT22;10303;51.960;8.372;2024-03-06T06:43:22;11.10;99.90
20288;DHT22;10303;51.960;8.372;2024-03-06T06:45:48;11.10;99.90
20288;DHT22;10303;51.960;8.372;2024-03-06T06:48:14;11.10;99.90
20288;DHT22;10303;51.960;8.372;2024-03-06T06:50:40;11.10;99.90
20288;DHT22;10303;51.960;8.372;2024-03-06T06:53:06;11.10;99.90
20288;DHT22;10303;51.960;8.372;2024-03-06T06:55:32;11.10;99.90
20288;DHT22;10303;51.960;8.372;2024-03-06T06:57:58;11.10;99.90
20288;DHT22;10303;51.960;8.372;2024-03-06T07:00:24;11.10;99.90
20288;DHT22;10303;51.960;8.372;2024-03-06T07:02:51;11.10;99.90
20288;DHT22;10303;51.960;8.372;2024-03-06T07:05:17;11.10;99.90
20288;DHT22;10303;51.960;8.372;2024-03-06T07:07:44;11.10;99.90
20288;DHT22;10303;51.960;8.372;2024-03-06T07:10:10;11.10;99.90
20288;DHT22;10303;51.960;8.372;2024-03-06T07:12:36;11.10;99.90
20288;DHT22;10303;51.960;8.372;2024-03-06T07:15:02;11.10;99.90
20288;DHT22;10303;51.960;8.372;2024-03-06T07:17:29;11.10;99.90
20288;DHT22;10303;51.960;8.372;2024-03-06T07:19:55;11.00;99.90
20288;DHT22;10303;51.960;8.372;2024-03-06T07:22:21;11.00;99.90
20288;DHT22;10303;51.960;8.372;2024-03-06T07:24:47;11.00;99.90
20288;DHT22;10303;51.960;8.372;2024-03-06T07:27:13;11.00;99.90
20288;DHT22;10303;51.960;8.372;2024-03-06T07:29:39;11.10;99.90
20288;DHT22;10303;51.960;8.372;2024-03-06T07:32:05;11.10;99.90
20288;DHT22;10303;51.960;8.372;2024-03-06T07:34:32;11.10;99.90
20288;DHT22;10303;51.960;8.372;2024-03-06T07:36:59;11.10;99.90
20288;DHT22;10303;51.960;8.372;2024-03-06T07:39:25;11.10;99.90
20288;DHT22;10303;51.960;8.372;2024-03-06T07:41:51;11.10;99.90
20288;DHT22;10303;51.960;8.372;2024-03-06T07:44:17;11.10;99.90
20288;DHT22;10303;51.960;8.372;2024-03-06T07:46:43;11.10;99.90
20288;DHT22;10303;51.960;8.372;2024-03-06T07:49:09;11.10;99.90
20288;DHT22;10303;51.960;8.372;2024-03-06T07:51:35;11.10;99.90
20288;DHT22;10303;51.960;8.372;2024-03-06T07:54:04;11.20;99.90
20288;DHT22;10303;51.960;8.372;2024-03-06T07:56:30;11.20;99.90
20288;DHT22;10303;51.960;8.372;2024-03-06T07:58:56;11.20;99.90
20288;DHT22;10303;51.960;8.372;2024-03-06T08:01:22;11.20;99.90
20288;DHT22;10303;51.960;8.372;2024-03-06T08:03:49;11.20;99.90
20288;DHT22;10303;51.960;8.372;2024-03-06T08:06:15;11.20;99.90
20288;DHT22;10303;51.960;8.372;2024-03-06T08:08:42;11.20;99.90
20288;DHT22;10303;51.960;8.372;2024-03-06T08:11:13;11.20;99.90
20288;DHT22;10303;51.960;8.372;2024-03-06T08:13:40;11.30;99.90
20288;DHT22;10303;51.960;8.372;2024-03-06T08:16:07;11.30;99.90
20288;DHT22;10303;51.960;8.372;2024-03-06T08:18:34;11.30;99.90
20288;DHT22;10303;51.960;8.372;2024-03-06T08:21:04;11.30;99.90
20288;DHT22;10303;51.960;8.372;2024-03-06T08:23:31;11.30;99.90
20288;DHT22;10303;51.960;8.372;2024-03-06T08:25:58;11.40;99.90
20288;DHT22;10303;51.960;8.372;2024-03-06T08:28:25;11.40;99.90
20288;DHT22;10303;51.960;8.372;2024-03-06T08:30:52;11.40;99.90
20288;DHT22;10303;51.960;8.372;2024-03-06T08:33:18;11.40;99.90
20288;DHT22;10303;51.960;8.372;2024-03-06T08:35:46;11.50;99.90
20288;DHT22;10303;51.960;8.372;2024-03-06T08:38:12;11.50;99.90
20288;DHT22;10303;51.960;8.372;2024-03-06T08:40:38;11.50;99.90
20288;DHT22;10303;51.960;8.372;2024-03-06T08:43:04;11.50;99.90
20288;DHT22;10303;51.960;8.372;2024-03-06T08:45:30;11.50;99.90
20288;DHT22;10303;51.960;8.372;2024-03-06T08:47:56;11.60;99.90
20288;DHT22;10303;51.960;8.372;2024-03-06T08:50:22;11.60;99.90
20288;DHT22;10303;51.960;8.372;2024-03-06T08:52:48;11.60;99.90
20288;DHT22;10303;51.960;8.372;2024-03-06T08:55:14;11.60;99.90
20288;DHT22;10303;51.960;8.372;2024-03-06T08:57:40;11.60;99.90
20288;DHT22;10303;51.960;8.372;2024-03-06T09:00:07;11.60;99.90
20288;DHT22;10303;51.960;8.372;2024-03-06T09:02:37;11.70;99.90
20288;DHT22;10303;51.960;8.372;2024-03-06T09:05:07;11.70;99.90
20288;DHT22;10303;51.960;8.372;2024-03-06T09:07:36;11.70;99.90
20288;DHT22;10303;51.960;8.372;2024-03-06T09:10:11;11.70;99.90
20288;DHT22;10303;51.960;8.372;2024-03-06T09:12:37;11.80;99.90
20288;DHT22;10303;51.960;8.372;2024-03-06T09:15:04;11.80;99.90
20288;DHT22;10303;51.960;8.372;2024-03-06T09:17:36;11.80;99.90
20288;DHT22;10303;51.960;8.372;2024-03-06T09:20:02;11.80;99.90
20288;DHT22;10303;51.960;8.372;2024-03-06T09:22:40;11.90;99.90
20288;DHT22;10303;51.960;8.372;2024-03-06T09:25:07;11.80;99.90
20288;DHT22;10303;51.960;8.372;2024-03-06T09:27:34;11.90;99.90
20288;DHT22;10303;51.960;8.372;2024-03-06T09:30:00;11.90;99.90
20288;DHT22;10303;51.960;8.372;2024-03-06T09:32:26;12.00;99.90
20288;DHT22;10303;51.960;8.372;2024-03-06T09:34:52;12.00;99.90
20288;DHT22;10303;51.960;8.372;2024-03-06T09:37:19;12.00;99.90
20288;DHT22;10303;51.960;8.372;2024-03-06T09:39:45;12.10;99.90
20288;DHT22;10303;51.960;8.372;2024-03-06T09:42:15;12.10;99.90
20288;DHT22;10303;51.960;8.372;2024-03-06T09:44:41;12.10;99.90
20288;DHT22;10303;51.960;8.372;2024-03-06T09:47:09;12.20;99.90
20288;DHT22;10303;51.960;8.372;2024-03-06T09:49:40;12.30;99.90
20288;DHT22;10303;51.960;8.372;2024-03-06T09:52:07;12.30;99.90
20288;DHT22;10303;51.960;8.372;2024-03-06T09:54:33;12.40;99.90
20288;DHT22;10303;51.960;8.372;2024-03-06T09:56:59;12.40;99.90
20288;DHT22;10303;51.960;8.372;2024-03-06T09:59:25;12.40;99.90
20288;DHT22;10303;51.960;8.372;2024-03-06T10:01:58;12.40;99.90
20288;DHT22;10303;51.960;8.372;2024-03-06T10:04:28;12.50;99.90
20288;DHT22;10303;51.960;8.372;2024-03-06T10:06:59;12.50;99.90
20288;DHT22;10303;51.960;8.372;2024-03-06T10:09:26;12.60;99.90
20288;DHT22;10303;51.960;8.372;2024-03-06T10:11:53;12.60;99.90
20288;DHT22;10303;51.960;8.372;2024-03-06T10:14:21;12.70;99.90
20288;DHT22;10303;51.960;8.372;2024-03-06T10:16:57;12.80;99.90
20288;DHT22;10303;51.960;8.372;2024-03-06T10:19:26;12.90;99.90
20288;DHT22;10303;51.960;8.372;2024-03-06T10:21:53;13.00;99.90
20288;DHT22;10303;51.960;8.372;2024-03-06T10:24:21;13.00;99.90
20288;DHT22;10303;51.960;8.372;2024-03-06T10:26:52;13.10;99.90
20288;DHT22;10303;51.960;8.372;2024-03-06T10:29:22;13.20;99.90
20288;DHT22;10303;51.960;8.372;2024-03-06T10:31:59;13.20;99.90
20288;DHT22;10303;51.960;8.372;2024-03-06T10:34:27;13.30;99.90
20288;DHT22;10303;51.960;8.372;2024-03-06T10:36:55;13.40;99.90
20288;DHT22;10303;51.960;8.372;2024-03-06T10:39:30;13.40;99.90
20288;DHT22;10303;51.960;8.372;2024-03-06T10:42:03;13.50;99.90
20288;DHT22;10303;51.960;8.372;2024-03-06T10:44:34;13.60;99.90
20288;DHT22;10303;51.960;8.372;2024-03-06T10:47:03;13.70;99.90
20288;DHT22;10303;51.960;8.372;2024-03-06T10:49:31;13.70;99.90
20288;DHT22;10303;51.960;8.372;2024-03-06T10:52:01;13.80;99.90
20288;DHT22;10303;51.960;8.372;2024-03-06T10:54:29;13.90;99.90
20288;DHT22;10303;51.960;8.372;2024-03-06T10:56:56;14.00;99.90
20288;DHT22;10303;51.960;8.372;2024-03-06T10:59:26;14.10;99.90
20288;DHT22;10303;51.960;8.372;2024-03-06T11:01:57;14.10;99.90
20288;DHT22;10303;51.960;8.372;2024-03-06T11:04:29;14.20;99.90
20288;DHT22;10303;51.960;8.372;2024-03-06T11:07:00;14.30;99.90
20288;DHT22;10303;51.960;8.372;2024-03-06T11:09:37;14.40;99.90
20288;DHT22;10303;51.960;8.372;2024-03-06T11:12:04;14.40;99.90
20288;DHT22;10303;51.960;8.372;2024-03-06T11:14:35;14.50;99.90
20288;DHT22;10303;51.960;8.372;2024-03-06T11:17:08;14.50;99.90
20288;DHT22;10303;51.960;8.372;2024-03-06T11:23:18;14.60;99.90
20288;DHT22;10303;51.960;8.372;2024-03-06T11:28:20;14.60;99.90
20288;DHT22;10303;51.960;8.372;2024-03-06T11:30:58;14.60;99.90
20288;DHT22;10303;51.960;8.372;2024-03-06T11:33:34;14.60;99.90
20288;DHT22;10303;51.960;8.372;2024-03-06T11:36:16;14.60;99.90
20288;DHT22;10303;51.960;8.372;2024-03-06T11:39:03;14.60;99.90
20288;DHT22;10303;51.960;8.372;2024-03-06T11:41:46;14.60;99.90
20288;DHT22;10303;51.960;8.372;2024-03-06T11:44:16;14.60;99.90
20288;DHT22;10303;51.960;8.372;2024-03-06T11:49:28;14.50;99.90
20288;DHT22;10303;51.960;8.372;2024-03-06T11:52:08;14.50;99.90
20288;DHT22;10303;51.960;8.372;2024-03-06T11:54:34;14.40;99.90
20288;DHT22;10303;51.960;8.372;2024-03-06T11:57:02;14.40;99.90
20288;DHT22;10303;51.960;8.372;2024-03-06T11:59:34;14.30;99.90
20288;DHT22;10303;51.960;8.372;2024-03-06T12:02:04;14.30;99.90
20288;DHT22;10303;51.960;8.372;2024-03-06T12:04:32;14.20;99.90
20288;DHT22;10303;51.960;8.372;2024-03-06T12:07:04;14.20;99.90
20288;DHT22;10303;51.960;8.372;2024-03-06T12:09:35;14.20;99.90
20288;DHT22;10303;51.960;8.372;2024-03-06T12:12:03;14.10;99.90
20288;DHT22;10303;51.960;8.372;2024-03-06T12:14:29;14.10;99.90
20288;DHT22;10303;51.960;8.372;2024-03-06T12:16:57;14.00;99.90
20288;DHT22;10303;51.960;8.372;2024-03-06T12:19:33;14.00;99.90
20288;DHT22;10303;51.960;8.372;2024-03-06T12:22:01;14.00;99.90
20288;DHT22;10303;51.960;8.372;2024-03-06T12:24:30;13.90;99.90
20288;DHT22;10303;51.960;8.372;2024-03-06T12:27:01;13.90;99.90
20288;DHT22;10303;51.960;8.372;2024-03-06T12:29:31;13.80;99.90
20288;DHT22;10303;51.960;8.372;2024-03-06T12:31:58;13.80;99.90
20288;DHT22;10303;51.960;8.372;2024-03-06T12:34:25;13.80;99.90
20288;DHT22;10303;51.960;8.372;2024-03-06T12:36:51;13.80;99.90
20288;DHT22;10303;51.960;8.372;2024-03-06T12:39:18;13.80;99.90
20288;DHT22;10303;51.960;8.372;2024-03-06T12:41:47;13.70;99.90
20288;DHT22;10303;51.960;8.372;2024-03-06T12:44:13;13.70;99.90
20288;DHT22;10303;51.960;8.372;2024-03-06T12:46:41;13.80;99.90
20288;DHT22;10303;51.960;8.372;2024-03-06T12:49:07;13.70;99.90
20288;DHT22;10303;51.960;8.372;2024-03-06T12:51:33;13.80;99.90
20288;DHT22;10303;51.960;8.372;2024-03-06T12:53:59;13.80;99.90
20288;DHT22;10303;51.960;8.372;2024-03-06T12:56:26;13.80;99.90
20288;DHT22;10303;51.960;8.372;2024-03-06T12:58:52;13.80;99.90
20288;DHT22;10303;51.960;8.372;2024-03-06T13:01:18;13.80;99.90
20288;DHT22;10303;51.960;8.372;2024-03-06T13:03:45;13.90;99.90
20288;DHT22;10303;51.960;8.372;2024-03-06T13:06:11;13.90;99.90
20288;DHT22;10303;51.960;8.372;2024-03-06T13:08:37;13.90;99.90
20288;DHT22;10303;51.960;8.372;2024-03-06T13:11:03;14.00;99.90
20288;DHT22;10303;51.960;8.372;2024-03-06T13:13:30;14.00;99.90
20288;DHT22;10303;51.960;8.372;2024-03-06T13:15:58;14.00;99.90
20288;DHT22;10303;51.960;8.372;2024-03-06T13:18:24;14.00;99.90
20288;DHT22;10303;51.960;8.372;2024-03-06T13:20:51;14.10;99.90
20288;DHT22;10303;51.960;8.372;2024-03-06T13:23:18;14.10;99.90
20288;DHT22;10303;51.960;8.372;2024-03-06T13:25:44;14.10;99.90
20288;DHT22;10303;51.960;8.372;2024-03-06T13:28:12;14.20;99.90
20288;DHT22;10303;51.960;8.372;2024-03-06T13:30:38;14.20;99.90
20288;DHT22;10303;51.960;8.372;2024-03-06T13:33:05;14.20;99.90
20288;DHT22;10303;51.960;8.372;2024-03-06T13:35:31;14.20;99.90
20288;DHT22;10303;51.960;8.372;2024-03-06T13:37:57;14.20;99.90
20288;DHT22;10303;51.960;8.372;2024-03-06T13:40:24;14.30;99.90
20288;DHT22;10303;51.960;8.372;2024-03-06T13:42:51;14.30;99.90
20288;DHT22;10303;51.960;8.372;2024-03-06T13:45:17;14.40;99.90
20288;DHT22;10303;51.960;8.372;2024-03-06T13:47:44;14.40;99.90
20288;DHT22;10303;51.960;8.372;2024-03-06T13:50:12;14.40;99.90
20288;DHT22;10303;51.960;8.372;2024-03-06T13:52:41;14.50;99.90
20288;DHT22;10303;51.960;8.372;2024-03-06T13:55:09;14.50;99.90
20288;DHT22;10303;51.960;8.372;2024-03-06T13:57:36;14.50;99.90
20288;DHT22;10303;51.960;8.372;2024-03-06T14:00:07;14.60;99.90
20288;DHT22;10303;51.960;8.372;2024-03-06T14:02:44;14.60;99.90
20288;DHT22;10303;51.960;8.372;2024-03-06T14:05:13;14.60;99.90
20288;DHT22;10303;51.960;8.372;2024-03-06T14:07:42;14.60;99.90
20288;DHT22;10303;51.960;8.372;2024-03-06T14:10:08;14.70;99.90
20288;DHT22;10303;51.960;8.372;2024-03-06T14:12:36;14.70;99.90
20288;DHT22;10303;51.960;8.372;2024-03-06T14:15:06;14.70;99.90
20288;DHT22;10303;51.960;8.372;2024-03-06T14:17:38;14.70;99.90
20288;DHT22;10303;51.960;8.372;2024-03-06T14:20:05;14.70;99.90
20288;DHT22;10303;51.960;8.372;2024-03-06T14:22:31;14.70;99.90
20288;DHT22;10303;51.960;8.372;2024-03-06T14:24:57;14.70;99.90
20288;DHT22;10303;51.960;8.372;2024-03-06T14:27:23;14.80;99.90
20288;DHT22;10303;51.960;8.372;2024-03-06T14:29:49;14.80;99.90
20288;DHT22;10303;51.960;8.372;2024-03-06T14:32:18;14.90;99.90
20288;DHT22;10303;51.960;8.372;2024-03-06T14:34:44;14.90;99.90
20288;DHT22;10303;51.960;8.372;2024-03-06T14:37:10;14.90;99.90
20288;DHT22;10303;51.960;8.372;2024-03-06T14:39:36;14.90;99.90
20288;DHT22;10303;51.960;8.372;2024-03-06T14:42:02;14.90;99.90
20288;DHT22;10303;51.960;8.372;2024-03-06T14:44:30;14.90;99.90
20288;DHT22;10303;51.960;8.372;2024-03-06T14:46:57;14.90;99.90
20288;DHT22;10303;51.960;8.372;2024-03-06T14:49:23;14.90;99.90
20288;DHT22;10303;51.960;8.372;2024-03-06T14:51:48;14.90;99.90
20288;DHT22;10303;51.960;8.372;2024-03-06T14:54:14;14.90;99.90
20288;DHT22;10303;51.960;8.372;2024-03-06T14:56:41;14.90;99.90
20288;DHT22;10303;51.960;8.372;2024-03-06T14:59:07;14.90;99.90
20288;DHT22;10303;51.960;8.372;2024-03-06T15:01:33;14.90;99.90
20288;DHT22;10303;51.960;8.372;2024-03-06T15:03:59;14.90;99.90
20288;DHT22;10303;51.960;8.372;2024-03-06T15:06:25;14.90;99.90
20288;DHT22;10303;51.960;8.372;2024-03-06T15:08:51;14.90;99.90
20288;DHT22;10303;51.960;8.372;2024-03-06T15:11:19;14.90;99.90
20288;DHT22;10303;51.960;8.372;2024-03-06T15:13:48;14.80;99.90
20288;DHT22;10303;51.960;8.372;2024-03-06T15:16:14;14.80;99.90
20288;DHT22;10303;51.960;8.372;2024-03-06T15:18:40;14.80;99.90
20288;DHT22;10303;51.960;8.372;2024-03-06T15:21:06;14.80;99.90
20288;DHT22;10303;51.960;8.372;2024-03-06T15:23:32;14.80;99.90
20288;DHT22;10303;51.960;8.372;2024-03-06T15:25:58;14.80;99.90
20288;DHT22;10303;51.960;8.372;2024-03-06T15:28:25;14.80;99.90
20288;DHT22;10303;51.960;8.372;2024-03-06T15:30:51;14.90;99.90
20288;DHT22;10303;51.960;8.372;2024-03-06T15:33:17;14.80;99.90
20288;DHT22;10303;51.960;8.372;2024-03-06T15:35:43;14.80;99.90
20288;DHT22;10303;51.960;8.372;2024-03-06T15:38:09;14.80;99.90
20288;DHT22;10303;51.960;8.372;2024-03-06T15:40:35;14.80;99.90